createdAt,value
2023-03-08T00:04:39.110Z,13.33
2023-03-08T00:09:37.224Z,13.28
2023-03-08T00:14:33.835Z,13.05
2023-03-08T00:19:30.507Z,13.02
2023-03-08T00:24:27.856Z,13.05
2023-03-08T00:29:24.479Z,12.95
2023-03-08T00:34:21.026Z,12.94
2023-03-08T00:39:17.564Z,12.82
2023-03-08T00:44:14.821Z,12.66
2023-03-08T00:49:12.954Z,12.59
2023-03-08T00:54:09.589Z,12.71
2023-03-08T00:59:06.432Z,12.65
2023-03-08T01:04:04.437Z,12.37
2023-03-08T01:09:01.197Z,12.01
2023-03-08T01:13:57.896Z,11.64
2023-03-08T01:18:54.889Z,11.53
2023-03-08T01:23:52.646Z,11.30
2023-03-08T01:28:49.907Z,10.93
2023-03-08T01:33:46.720Z,10.75
2023-03-08T01:38:45.243Z,10.00
2023-03-08T01:43:42.746Z,10.20
2023-03-08T01:48:44.222Z,10.34
2023-03-08T01:53:46.217Z,10.17
2023-03-08T01:58:44.960Z,10.64
2023-03-08T02:03:41.597Z,10.29
2023-03-08T02:08:39.027Z,10.32
2023-03-08T02:13:36.410Z,10.37
2023-03-08T02:18:34.485Z,10.52
2023-03-08T02:23:31.751Z,10.49
2023-03-08T02:28:28.537Z,10.49
2023-03-08T02:33:25.125Z,10.20
2023-03-08T02:38:22.073Z,9.99
2023-03-08T02:43:19.709Z,9.90
2023-03-08T02:48:16.897Z,9.84
2023-03-08T02:53:13.655Z,10.08
2023-03-08T02:58:10.623Z,9.87
2023-03-08T03:03:08.116Z,9.77
2023-03-08T03:08:04.718Z,9.82
2023-03-08T03:13:01.411Z,9.78
2023-03-08T03:18:00.459Z,9.70
2023-03-08T03:22:58.793Z,9.55
2023-03-08T03:28:04.971Z,9.51
2023-03-08T03:33:02.291Z,9.25
2023-03-08T03:38:02.419Z,9.09
2023-03-08T03:42:59.234Z,8.92
2023-03-08T03:47:55.876Z,8.79
2023-03-08T03:52:53.047Z,9.10
2023-03-08T03:57:50.556Z,8.68
2023-03-08T04:02:48.187Z,8.55
2023-03-08T04:07:48.062Z,8.62
2023-03-08T04:12:47.970Z,8.83
2023-03-08T04:17:47.426Z,8.73
2023-03-08T04:22:44.447Z,8.88
2023-03-08T04:27:56.584Z,9.00
2023-03-08T04:32:54.228Z,9.23
2023-03-08T04:37:55.150Z,9.31
2023-03-08T04:42:54.902Z,9.32
2023-03-08T04:47:57.424Z,9.58
2023-03-08T04:52:54.537Z,9.69
2023-03-08T04:57:51.447Z,9.74
2023-03-08T05:02:48.369Z,9.72
2023-03-08T05:07:48.895Z,9.97
2023-03-08T05:12:45.527Z,10.02
2023-03-08T05:17:42.169Z,10.09
2023-03-08T05:22:56.704Z,10.13
2023-03-08T05:27:59.431Z,10.29
2023-03-08T05:32:56.399Z,10.47
2023-03-08T05:37:53.229Z,10.67
2023-03-08T05:42:50.185Z,10.88
2023-03-08T05:47:48.778Z,10.78
2023-03-08T05:52:46.822Z,11.05
2023-03-08T05:57:50.070Z,11.24
2023-03-08T06:02:47.288Z,11.25
2023-03-08T06:07:45.589Z,11.51
2023-03-08T06:12:44.226Z,11.50
2023-03-08T06:17:44.242Z,11.62
2023-03-08T06:22:43.703Z,11.38
2023-03-08T06:27:43.935Z,11.69
2023-03-08T06:32:52.722Z,11.77
2023-03-08T06:37:49.986Z,11.81
2023-03-08T06:42:47.648Z,12.03
2023-03-08T06:47:47.768Z,12.35
2023-03-08T06:52:47.318Z,12.30
2023-03-08T06:57:47.687Z,12.36
2023-03-08T07:02:44.546Z,12.45
2023-03-08T07:07:41.584Z,12.70
2023-03-08T07:12:42.953Z,12.87
2023-03-08T07:17:40.950Z,12.91
2023-03-08T07:22:40.183Z,13.14
2023-03-08T07:27:36.874Z,13.20
2023-03-08T07:32:33.877Z,12.95
2023-03-08T07:37:31.608Z,13.00
2023-03-08T07:42:28.523Z,13.15
2023-03-08T07:47:32.308Z,13.23
2023-03-08T07:52:29.616Z,13.50
2023-03-08T07:57:27.049Z,13.55
2023-03-08T08:02:24.089Z,13.58
2023-03-08T08:07:22.211Z,13.79
2023-03-08T08:12:19.153Z,13.95
2023-03-08T08:17:25.501Z,14.01
2023-03-08T08:22:22.373Z,14.08
2023-03-08T08:27:19.294Z,14.26
2023-03-08T08:32:16.848Z,14.24
2023-03-08T08:37:13.692Z,14.49
2023-03-08T08:42:10.754Z,14.64
2023-03-08T08:47:08.864Z,14.56
2023-03-08T08:52:08.846Z,14.37
2023-03-08T08:57:05.882Z,14.61
2023-03-08T09:02:05.836Z,14.75
2023-03-08T09:07:06.994Z,14.88
2023-03-08T09:12:07.958Z,14.95
2023-03-08T09:17:06.120Z,14.99
2023-03-08T09:22:03.092Z,15.08
2023-03-08T09:27:00.225Z,15.29
2023-03-08T09:32:00.325Z,15.29
2023-03-08T09:36:57.438Z,15.39
2023-03-08T09:41:56.684Z,15.46
2023-03-08T09:46:57.331Z,15.46
2023-03-08T09:51:59.244Z,15.44
2023-03-08T09:56:56.440Z,15.56
2023-03-08T10:01:58.761Z,15.72
2023-03-08T10:07:05.693Z,15.79
2023-03-08T10:12:13.482Z,15.76
2023-03-08T10:17:13.094Z,15.75
2023-03-08T10:22:23.640Z,15.74
2023-03-08T10:27:22.051Z,15.69
2023-03-08T10:32:19.093Z,15.74
2023-03-08T10:37:16.842Z,15.65
2023-03-08T10:42:15.078Z,15.77
2023-03-08T10:47:22.319Z,15.83
2023-03-08T10:52:27.467Z,15.67
2023-03-08T10:57:27.697Z,15.68
2023-03-08T11:02:26.346Z,15.81
2023-03-08T11:07:27.588Z,15.60
2023-03-08T11:12:36.773Z,15.64
2023-03-08T11:17:38.902Z,15.93
2023-03-08T11:22:40.932Z,15.90
2023-03-08T11:27:58.153Z,15.74
2023-03-08T11:33:02.732Z,16.06
2023-03-08T11:38:02.511Z,16.04
2023-03-08T11:43:16.113Z,16.10
2023-03-08T11:48:27.786Z,16.22
2023-03-08T11:53:36.494Z,16.29
2023-03-08T11:58:36.329Z,16.26
2023-03-08T12:03:53.926Z,16.37
2023-03-08T12:09:00.546Z,16.44
2023-03-08T12:14:03.605Z,16.48
2023-03-08T12:19:10.762Z,16.48
2023-03-08T12:24:24.731Z,16.43
2023-03-08T12:29:26.804Z,16.56
2023-03-08T12:34:30.144Z,16.84
2023-03-08T12:39:32.189Z,17.00
2023-03-08T12:44:31.408Z,16.87
2023-03-08T12:49:30.474Z,16.99
2023-03-08T12:54:31.716Z,17.06
2023-03-08T12:59:35.825Z,16.99
2023-03-08T13:04:40.821Z,16.97
2023-03-08T13:09:53.196Z,16.88
2023-03-08T13:14:59.805Z,16.96
2023-03-08T13:19:58.458Z,17.12
2023-03-08T13:24:57.997Z,17.04
2023-03-08T13:29:56.296Z,17.01
2023-03-08T13:34:58.414Z,17.08
2023-03-08T13:39:58.338Z,17.08
2023-03-08T13:45:06.693Z,17.07
2023-03-08T13:50:04.956Z,17.28
2023-03-08T13:55:04.390Z,17.45
2023-03-08T14:00:03.116Z,17.35
2023-03-08T14:05:01.780Z,17.51
2023-03-08T14:10:02.997Z,17.47
2023-03-08T14:15:01.264Z,17.69
2023-03-08T14:19:59.858Z,17.51
2023-03-08T14:25:02.047Z,17.48
2023-03-08T14:30:02.174Z,17.38
2023-03-08T14:35:06.564Z,17.22
2023-03-08T14:40:20.980Z,17.23
2023-03-08T14:45:20.790Z,17.35
2023-03-08T14:50:20.357Z,17.47
2023-03-08T14:55:22.465Z,17.41
2023-03-08T15:00:19.970Z,17.31
2023-03-08T15:05:28.493Z,17.25
2023-03-08T15:10:34.154Z,17.17
2023-03-08T15:15:31.355Z,17.22
2023-03-08T15:20:28.292Z,17.25
2023-03-08T15:25:26.004Z,17.18
2023-03-08T15:30:25.375Z,17.27
2023-03-08T15:35:25.787Z,17.19
2023-03-08T15:40:24.367Z,17.14
2023-03-08T15:45:22.855Z,17.11
2023-03-08T15:50:20.214Z,17.07
2023-03-08T15:55:21.557Z,17.06
2023-03-08T16:00:20.165Z,17.04
2023-03-08T16:05:19.190Z,17.01
2023-03-08T16:10:21.372Z,16.99
2023-03-08T16:15:18.891Z,16.96
2023-03-08T16:20:20.060Z,16.95
2023-03-08T16:25:22.426Z,16.91
2023-03-08T16:30:23.280Z,16.88
2023-03-08T16:35:20.233Z,16.75
2023-03-08T16:40:18.209Z,16.59
2023-03-08T16:45:15.172Z,16.50
2023-03-08T16:50:12.377Z,16.46
2023-03-08T16:55:09.157Z,16.54
2023-03-08T17:00:12.134Z,16.52
2023-03-08T17:05:10.558Z,16.46
2023-03-08T17:10:08.035Z,16.44
2023-03-08T17:15:09.642Z,16.57
2023-03-08T17:20:08.346Z,16.55
2023-03-08T17:25:05.594Z,16.42
2023-03-08T17:30:03.261Z,16.48
2023-03-08T17:35:02.337Z,16.43
2023-03-08T17:39:59.987Z,16.37
2023-03-08T17:44:57.516Z,16.27
2023-03-08T17:49:54.226Z,16.32
2023-03-08T17:54:53.896Z,16.29
2023-03-08T17:59:52.429Z,16.26
2023-03-08T18:04:51.336Z,16.18
2023-03-08T18:09:50.321Z,16.19
2023-03-08T18:14:52.141Z,16.18
2023-03-08T18:20:01.353Z,16.11
2023-03-08T18:25:02.160Z,16.03
2023-03-08T18:29:59.423Z,15.65
2023-03-08T18:34:56.441Z,15.62
2023-03-08T18:39:54.139Z,15.71
2023-03-08T18:44:50.961Z,15.78
2023-03-08T18:49:47.917Z,15.58
2023-03-08T18:54:44.884Z,15.36
2023-03-08T18:59:42.312Z,15.53
2023-03-08T19:04:39.201Z,15.56
2023-03-08T19:09:35.882Z,15.56
2023-03-08T19:14:32.756Z,15.53
2023-03-08T19:19:33.247Z,15.41
2023-03-08T19:24:31.278Z,15.27
2023-03-08T19:29:28.874Z,15.13
2023-03-08T19:34:26.857Z,15.12
2023-03-08T19:39:27.029Z,14.89
2023-03-08T19:44:23.750Z,14.94
2023-03-08T19:49:22.400Z,14.92
2023-03-08T19:54:19.578Z,14.62
2023-03-08T19:59:17.280Z,14.47
2023-03-08T20:04:14.035Z,14.39
2023-03-08T20:09:11.855Z,14.61
2023-03-08T20:14:08.524Z,14.64
2023-03-08T20:19:05.954Z,14.75
2023-03-08T20:24:03.483Z,14.73
2023-03-08T20:29:00.474Z,14.62
2023-03-08T20:33:57.614Z,14.44
2023-03-08T20:38:58.104Z,14.32
2023-03-08T20:43:55.296Z,14.50
2023-03-08T20:48:52.166Z,14.42
2023-03-08T20:53:49.564Z,14.44
2023-03-08T20:58:46.999Z,14.35
2023-03-08T21:03:44.090Z,14.54
2023-03-08T21:08:40.898Z,14.40
2023-03-08T21:13:37.719Z,14.67
2023-03-08T21:18:35.031Z,14.32
2023-03-08T21:23:31.691Z,14.51
2023-03-08T21:28:28.540Z,14.28
2023-03-08T21:33:25.367Z,13.47
2023-03-08T21:38:24.734Z,13.59
2023-03-08T21:43:24.752Z,14.05
2023-03-08T21:48:28.842Z,14.22
2023-03-08T21:53:26.379Z,14.28
2023-03-08T21:58:23.574Z,14.37
2023-03-08T22:03:20.393Z,13.61
2023-03-08T22:08:17.153Z,13.13
2023-03-08T22:13:14.610Z,12.86
2023-03-08T22:18:11.293Z,12.65
2023-03-08T22:23:07.942Z,12.85
2023-03-08T22:28:04.765Z,12.62
2023-03-08T22:33:02.175Z,12.53
2023-03-08T22:37:59.341Z,12.43
2023-03-08T22:42:56.050Z,12.79
2023-03-08T22:47:54.096Z,12.45
2023-03-08T22:52:51.582Z,12.29
2023-03-08T22:57:51.194Z,12.49
2023-03-08T23:02:48.035Z,12.29
2023-03-08T23:07:45.050Z,12.23
2023-03-08T23:12:42.706Z,12.32
2023-03-08T23:17:39.743Z,12.50
2023-03-08T23:22:36.406Z,12.18
2023-03-08T23:27:33.107Z,12.02
2023-03-08T23:32:30.643Z,12.00
2023-03-08T23:37:27.500Z,12.10
2023-03-08T23:42:25.507Z,12.09
2023-03-08T23:47:24.670Z,12.13
2023-03-08T23:52:22.185Z,12.13
2023-03-08T23:57:19.087Z,11.96
